Česky Dansk Deutsch English Español Suomi Français Magyar Italiano Nederlands norsk Polski Português svenska Türkçe

 

Het Weer

Saint-Brieuc (Frankrijk)

19:00, 17 augustus 2016 (GMT)

NWNNE
WE
SWSSE
Home            
Saint-Brieuc Lannion / Servel Dinard Morlaix / Ploujean Jersey Airport Landivisiau Lann Bihoue Rennes Guernsey Airport Brest Quimper Lanveoc Poulmic Alderney / Channel Island St-Nazaire Cherbourg / Maupertus Nantes Caen Angers Alencon Plymouth Portland / Rnas Plymouth / Roborough La Roche-Sur-Yon

Om een weerknop op uw website of weblog te plaatsen, copieer onderstaande code en plak die in uw pagina. In het eerste vakje staat HTML-code, in het tweede vakje UBB-code.


Add to Google

Details

Wind speed:1 bf, 3 kn, 1.5 m/s, 3.5 miles/h, 5.6 km/h
Wind direction:Variable
Visibility: 6000 m, 6.0 km, 19685 ft, 3.7 miles
Het Weer:light rain
Temperature:19°C, 66°F
Dew-point:17°C, 63°F
Atmospheric pressure:1011 hPa, 758.3 mmHg, 29.85 inHg, 0.998 atm
Relative humidity:88.2 %
METAR:LFRT 171900Z AUTO VRB03KT 6000 -RA TCU 19/17 Q1011

Snelkoppelingen

Actuele weersinformatie van de hele wereld. Voeg locaties toe met het plus (+) symbool. Deze snelkoppelingen kunnen worden toegevoegd aan Google.

Lid van de Technetium groep

website free tracking
StatCounter NetStat W3C Validator

24-11-2020 07:32:46
astro.technetium.be money.technetium.be phote.technetium.be tafeltennistafel.technetium.be www.ligfiets.net